Time;durP1;ratioP1;P1;durP2;ratioP2;P2;SDS_P1;SDS_P2;PMS_P1;PMS_P2;Temp;Humidity;BMP_temperature;BMP_pressure;BME280_temperature;BME280_humidity;BME280_pressure;Samples;Min_cycle;Max_cycle;Signal;HPM_P1;HPM_P2
2023/04/04 00:02:08;;;;;;;10.85;7.43;;;;;;;;;;4251106;27;20050;-60
2023/04/04 00:04:28;;;;;;;5.65;5.55;;;;;;;;;;4254182;27;20042;-61
2023/04/04 00:06:48;;;;;;;5.38;5.28;;;;;;;;;;4247649;27;20362;-60
2023/04/04 00:09:09;;;;;;;6.22;5.93;;;;;;;;;;4252066;27;20046;-60
2023/04/04 00:11:29;;;;;;;6.30;6.18;;;;;;;;;;4249127;27;20054;-60
2023/04/04 00:13:50;;;;;;;6.07;5.68;;;;;;;;;;4252187;27;20042;-60
2023/04/04 00:16:10;;;;;;;6.40;5.93;;;;;;;;;;4248211;27;20054;-60
2023/04/04 00:18:31;;;;;;;6.93;6.38;;;;;;;;;;4253481;27;20553;-60
2023/04/04 00:20:52;;;;;;;6.57;6.30;;;;;;;;;;4252444;27;20046;-60
2023/04/04 00:23:12;;;;;;;6.68;6.22;;;;;;;;;;4251589;27;20230;-60
2023/04/04 00:25:32;;;;;;;5.85;5.65;;;;;;;;;;4245391;27;20408;-60
2023/04/04 00:27:52;;;;;;;5.82;5.65;;;;;;;;;;4250949;28;20080;-60
2023/04/04 00:30:13;;;;;;;6.00;5.80;;;;;;;;;;4246922;28;20037;-60
2023/04/04 00:32:33;;;;;;;5.95;5.55;;;;;;;;;;4248976;28;20070;-61
2023/04/04 00:34:56;;;;;;;6.50;6.10;;;;;;;;;;4246625;28;20059;-60
2023/04/04 00:37:16;;;;;;;6.85;6.32;;;;;;;;;;4240922;28;20046;-60
2023/04/04 00:39:36;;;;;;;6.15;5.85;;;;;;;;;;4244022;28;20093;-60
2023/04/04 00:41:57;;;;;;;7.00;6.57;;;;;;;;;;4250077;28;20397;-60
2023/04/04 00:44:17;;;;;;;7.38;6.75;;;;;;;;;;4236882;28;20042;-61
2023/04/04 00:46:37;;;;;;;6.65;6.18;;;;;;;;;;4247873;28;20058;-60
2023/04/04 00:48:58;;;;;;;10.95;6.72;;;;;;;;;;4253763;28;20043;-61
2023/04/04 00:51:18;;;;;;;7.78;5.85;;;;;;;;;;4250625;28;20139;-60
2023/04/04 00:53:38;;;;;;;6.35;6.10;;;;;;;;;;4249959;28;20227;-61
2023/04/04 00:55:58;;;;;;;5.35;4.95;;;;;;;;;;4248921;28;20292;-61
2023/04/04 00:58:18;;;;;;;7.05;6.70;;;;;;;;;;4246449;28;20065;-60
2023/04/04 01:00:39;;;;;;;6.88;5.97;;;;;;;;;;4248223;28;20056;-60
2023/04/04 01:03:01;;;;;;;8.23;7.57;;;;;;;;;;4247685;28;20069;-61
2023/04/04 01:05:21;;;;;;;7.25;6.75;;;;;;;;;;4240297;28;20290;-60
2023/04/04 01:07:42;;;;;;;8.07;6.65;;;;;;;;;;4247916;28;20126;-60
2023/04/04 01:10:03;;;;;;;7.93;7.53;;;;;;;;;;4248491;28;20038;-60
2023/04/04 01:12:23;;;;;;;7.38;6.97;;;;;;;;;;4247059;28;20054;-60
2023/04/04 01:14:43;;;;;;;7.78;7.40;;;;;;;;;;4251887;28;20084;-61
2023/04/04 01:17:04;;;;;;;7.40;6.75;;;;;;;;;;4235403;28;20050;-61
2023/04/04 01:19:36;;;;;;;7.10;6.80;;;;;;;;;;4246895;28;20069;-61
2023/04/04 01:21:56;;;;;;;6.93;6.55;;;;;;;;;;4243785;28;20324;-61
2023/04/04 01:24:17;;;;;;;8.35;6.78;;;;;;;;;;4246542;28;20074;-61
2023/04/04 01:26:38;;;;;;;6.45;6.13;;;;;;;;;;4248007;28;20128;-60
2023/04/04 01:28:58;;;;;;;6.15;5.95;;;;;;;;;;4247627;28;20281;-61
2023/04/04 01:31:21;;;;;;;6.88;6.47;;;;;;;;;;4245685;28;20079;-60
2023/04/04 01:33:53;;;;;;;7.57;7.10;;;;;;;;;;4248222;28;20037;-61
2023/04/04 01:36:21;;;;;;;7.82;7.57;;;;;;;;;;4246629;27;20065;-61
2023/04/04 01:38:46;;;;;;;7.47;7.28;;;;;;;;;;4249759;28;20238;-61
2023/04/04 01:41:07;;;;;;;8.30;7.85;;;;;;;;;;4247704;28;20054;-60
2023/04/04 01:43:30;;;;;;;7.75;7.35;;;;;;;;;;4246423;28;20369;-61
2023/04/04 01:45:50;;;;;;;7.07;6.88;;;;;;;;;;4236826;28;20114;-60
2023/04/04 01:48:10;;;;;;;8.23;7.60;;;;;;;;;;4252075;28;20050;-60
2023/04/04 01:50:30;;;;;;;6.43;6.22;;;;;;;;;;4246988;28;20046;-60
2023/04/04 01:52:51;;;;;;;8.30;7.70;;;;;;;;;;4245066;28;20053;-61
2023/04/04 01:55:11;;;;;;;6.10;5.63;;;;;;;;;;4235363;28;20394;-61
2023/04/04 01:57:31;;;;;;;7.47;7.07;;;;;;;;;;4249887;28;20046;-61
2023/04/04 01:59:51;;;;;;;7.07;6.70;;;;;;;;;;4247806;28;20297;-61
2023/04/04 02:02:12;;;;;;;7.90;7.28;;;;;;;;;;4245844;28;20447;-61
2023/04/04 02:04:32;;;;;;;8.20;7.57;;;;;;;;;;4250243;28;20034;-60
2023/04/04 02:06:54;;;;;;;8.95;8.25;;;;;;;;;;4253667;28;20046;-60
2023/04/04 02:09:15;;;;;;;7.82;7.43;;;;;;;;;;4245469;28;20365;-60
2023/04/04 02:11:35;;;;;;;7.30;6.97;;;;;;;;;;4247547;28;20074;-61
2023/04/04 02:13:56;;;;;;;6.10;5.80;;;;;;;;;;4244822;28;20235;-61
2023/04/04 02:16:17;;;;;;;6.85;6.60;;;;;;;;;;4244736;28;20085;-61
2023/04/04 02:18:37;;;;;;;7.45;7.25;;;;;;;;;;4247160;28;20096;-61
2023/04/04 02:20:57;;;;;;;8.30;8.00;;;;;;;;;;4247072;28;20046;-61
2023/04/04 02:23:17;;;;;;;6.88;6.55;;;;;;;;;;4245562;28;20088;-61
2023/04/04 02:25:38;;;;;;;5.85;5.75;;;;;;;;;;4246283;28;20091;-61
2023/04/04 02:27:58;;;;;;;6.75;6.28;;;;;;;;;;4246906;28;20072;-60
2023/04/04 02:30:18;;;;;;;6.97;6.50;;;;;;;;;;4246899;28;20058;-61
2023/04/04 02:32:38;;;;;;;7.75;7.55;;;;;;;;;;4247283;28;20054;-61
2023/04/04 02:34:59;;;;;;;9.90;7.88;;;;;;;;;;4247328;28;20055;-60
2023/04/04 02:37:19;;;;;;;7.35;7.15;;;;;;;;;;4245325;27;20075;-61
2023/04/04 02:39:39;;;;;;;6.93;6.55;;;;;;;;;;4246581;28;20091;-61
2023/04/04 02:41:59;;;;;;;6.82;6.45;;;;;;;;;;4233119;28;20078;-61
2023/04/04 02:44:19;;;;;;;6.22;5.78;;;;;;;;;;4245667;28;20085;-61
2023/04/04 02:46:40;;;;;;;5.55;5.30;;;;;;;;;;4244235;28;20054;-61
2023/04/04 02:49:01;;;;;;;6.63;6.32;;;;;;;;;;4247234;28;20088;-60
2023/04/04 02:51:21;;;;;;;8.48;8.15;;;;;;;;;;4248195;28;20062;-60
2023/04/04 02:53:41;;;;;;;7.10;6.60;;;;;;;;;;4246310;28;20299;-60
2023/04/04 02:56:05;;;;;;;7.40;7.13;;;;;;;;;;4243883;28;20097;-61
2023/04/04 02:58:26;;;;;;;7.63;7.05;;;;;;;;;;4247793;28;20058;-60
2023/04/04 03:00:53;;;;;;;7.38;6.90;;;;;;;;;;4242501;28;20053;-61
2023/04/04 03:03:13;;;;;;;7.68;7.10;;;;;;;;;;4245367;28;20395;-61
2023/04/04 03:05:33;;;;;;;7.57;7.38;;;;;;;;;;4246583;28;20272;-61
2023/04/04 03:07:57;;;;;;;7.75;7.43;;;;;;;;;;4244867;28;20046;-60
2023/04/04 03:10:17;;;;;;;6.72;6.60;;;;;;;;;;4244624;28;20097;-60
2023/04/04 03:12:38;;;;;;;8.25;7.85;;;;;;;;;;4246664;28;20078;-61
2023/04/04 03:14:58;;;;;;;8.07;7.82;;;;;;;;;;4246363;28;20089;-60
2023/04/04 03:17:18;;;;;;;10.90;7.55;;;;;;;;;;4244818;28;20157;-60
2023/04/04 03:19:38;;;;;;;7.47;6.82;;;;;;;;;;4246336;28;20152;-61
2023/04/04 03:21:58;;;;;;;7.25;6.95;;;;;;;;;;4245632;28;20051;-60
2023/04/04 03:24:18;;;;;;;8.07;7.13;;;;;;;;;;4245427;28;20111;-60
2023/04/04 03:26:39;;;;;;;6.28;6.05;;;;;;;;;;4246260;28;20093;-61
2023/04/04 03:28:59;;;;;;;7.85;7.60;;;;;;;;;;4245746;28;20061;-60
2023/04/04 03:31:19;;;;;;;6.78;6.47;;;;;;;;;;4244369;28;20043;-60
2023/04/04 03:33:41;;;;;;;6.38;6.15;;;;;;;;;;4246263;28;20054;-61
2023/04/04 03:36:01;;;;;;;8.75;7.93;;;;;;;;;;4246666;27;20157;-61
2023/04/04 03:38:22;;;;;;;6.75;6.65;;;;;;;;;;4243707;28;20050;-61
2023/04/04 03:40:42;;;;;;;8.40;7.97;;;;;;;;;;4243298;28;20055;-61
2023/04/04 03:43:06;;;;;;;9.45;8.30;;;;;;;;;;4250110;28;20050;-61
2023/04/04 03:45:26;;;;;;;8.80;8.43;;;;;;;;;;4246502;28;20072;-60
2023/04/04 03:47:47;;;;;;;8.02;7.53;;;;;;;;;;4244927;28;20050;-61
2023/04/04 03:50:07;;;;;;;7.22;6.90;;;;;;;;;;4241407;28;20051;-61
2023/04/04 03:52:27;;;;;;;7.57;7.00;;;;;;;;;;4244717;28;20077;-61
2023/04/04 03:54:47;;;;;;;6.90;6.57;;;;;;;;;;4243293;28;20380;-61
2023/04/04 03:57:07;;;;;;;8.13;7.47;;;;;;;;;;4245935;28;20042;-61
2023/04/04 03:59:28;;;;;;;8.18;7.72;;;;;;;;;;4244495;27;20074;-61
2023/04/04 04:01:48;;;;;;;7.88;7.53;;;;;;;;;;4245533;28;20055;-61
2023/04/04 04:04:09;;;;;;;9.32;8.68;;;;;;;;;;4248081;28;20046;-59
2023/04/04 04:06:29;;;;;;;10.18;9.85;;;;;;;;;;4249053;28;20306;-58
2023/04/04 04:08:49;;;;;;;9.18;8.88;;;;;;;;;;4246728;28;20055;-58
2023/04/04 04:11:09;;;;;;;9.57;9.45;;;;;;;;;;4247151;28;20386;-57
2023/04/04 04:13:29;;;;;;;9.10;8.85;;;;;;;;;;4248884;28;20077;-58
2023/04/04 04:15:50;;;;;;;8.15;7.95;;;;;;;;;;4247436;28;20058;-58
2023/04/04 04:18:10;;;;;;;9.77;8.95;;;;;;;;;;4249915;28;20041;-58
2023/04/04 04:20:30;;;;;;;9.38;8.98;;;;;;;;;;4248461;28;20071;-58
2023/04/04 04:22:50;;;;;;;7.82;7.53;;;;;;;;;;4247978;28;20050;-58
2023/04/04 04:25:14;;;;;;;8.63;7.95;;;;;;;;;;4249387;28;20383;-57
2023/04/04 04:27:35;;;;;;;7.45;7.25;;;;;;;;;;4251079;28;20046;-58
2023/04/04 04:29:55;;;;;;;7.65;7.50;;;;;;;;;;4247854;28;20085;-58
2023/04/04 04:32:19;;;;;;;7.43;7.20;;;;;;;;;;4246546;28;20376;-58
2023/04/04 04:34:39;;;;;;;7.93;7.50;;;;;;;;;;4248755;28;20069;-58
2023/04/04 04:36:59;;;;;;;7.00;6.90;;;;;;;;;;4250886;28;20058;-58
2023/04/04 04:39:19;;;;;;;7.28;7.18;;;;;;;;;;4248624;28;20407;-58
2023/04/04 04:41:39;;;;;;;8.77;8.13;;;;;;;;;;4246808;28;20415;-58
2023/04/04 04:43:59;;;;;;;7.32;7.10;;;;;;;;;;4248629;28;20039;-58
2023/04/04 04:46:19;;;;;;;6.55;6.35;;;;;;;;;;4250874;28;20100;-58
2023/04/04 04:48:39;;;;;;;8.00;7.80;;;;;;;;;;4249530;28;20273;-58
2023/04/04 04:51:00;;;;;;;7.95;7.80;;;;;;;;;;4249098;28;20096;-58
2023/04/04 04:53:20;;;;;;;8.25;7.90;;;;;;;;;;4245570;28;20043;-58
2023/04/04 04:55:44;;;;;;;8.27;7.88;;;;;;;;;;4245231;28;20046;-59
2023/04/04 04:58:05;;;;;;;;;;;;;;;;;;4248595;28;20116;-58
2023/04/04 05:00:25;;;;;;;7.65;7.45;;;;;;;;;;4248781;28;19995;-58
2023/04/04 05:02:45;;;;;;;8.93;8.48;;;;;;;;;;4245987;28;20054;-58
2023/04/04 05:05:05;;;;;;;8.25;7.63;;;;;;;;;;4247102;28;20238;-58
2023/04/04 05:07:26;;;;;;;6.70;6.50;;;;;;;;;;4247977;28;20054;-57
2023/04/04 05:09:46;;;;;;;7.40;7.30;;;;;;;;;;4251049;28;20084;-58
2023/04/04 05:12:06;;;;;;;8.55;8.07;;;;;;;;;;4247467;28;20093;-59
2023/04/04 05:14:26;;;;;;;8.70;7.93;;;;;;;;;;4248527;28;20042;-58
2023/04/04 05:16:46;;;;;;;9.30;8.60;;;;;;;;;;4246764;28;20117;-59
2023/04/04 05:19:09;;;;;;;8.88;8.38;;;;;;;;;;4253063;28;20055;-58
2023/04/04 05:21:29;;;;;;;7.18;7.07;;;;;;;;;;4235245;28;20046;-57
2023/04/04 05:23:50;;;;;;;8.75;8.43;;;;;;;;;;4246287;28;20054;-57
2023/04/04 05:26:10;;;;;;;7.28;7.07;;;;;;;;;;4246792;28;20190;-57
2023/04/04 05:28:30;;;;;;;8.02;7.50;;;;;;;;;;4234532;28;20269;-57
2023/04/04 05:30:50;;;;;;;8.13;7.82;;;;;;;;;;4248445;28;20058;-57
2023/04/04 05:33:10;;;;;;;6.20;6.10;;;;;;;;;;4247174;28;20058;-57
2023/04/04 05:35:30;;;;;;;6.95;6.75;;;;;;;;;;4247661;27;20050;-57
2023/04/04 05:37:51;;;;;;;6.47;6.28;;;;;;;;;;4247447;28;20069;-57
2023/04/04 05:40:11;;;;;;;7.45;6.85;;;;;;;;;;4249065;28;20235;-57
2023/04/04 05:42:31;;;;;;;6.60;6.40;;;;;;;;;;4250149;28;20043;-57
2023/04/04 05:44:51;;;;;;;7.05;6.93;;;;;;;;;;4247873;28;20085;-57
2023/04/04 05:47:11;;;;;;;7.60;7.10;;;;;;;;;;4232938;28;20303;-57
2023/04/04 05:49:31;;;;;;;7.25;6.95;;;;;;;;;;4252187;28;20131;-57
2023/04/04 05:51:55;;;;;;;8.20;7.82;;;;;;;;;;4249363;28;20080;-57
2023/04/04 05:54:15;;;;;;;5.20;5.13;;;;;;;;;;4246803;28;20066;-57
2023/04/04 05:56:35;;;;;;;7.00;6.60;;;;;;;;;;4244534;28;20242;-57
2023/04/04 05:58:55;;;;;;;7.25;6.57;;;;;;;;;;4239903;28;20047;-58
2023/04/04 06:01:17;;;;;;;8.55;8.10;;;;;;;;;;4249119;28;20077;-57
2023/04/04 06:03:37;;;;;;;7.55;7.45;;;;;;;;;;4247587;28;20046;-57
2023/04/04 06:05:58;;;;;;;20.38;18.63;;;;;;;;;;4246297;28;20097;-57
2023/04/04 06:08:18;;;;;;;8.02;7.88;;;;;;;;;;4247691;28;20061;-57
2023/04/04 06:10:38;;;;;;;9.20;8.80;;;;;;;;;;4248348;28;20046;-57
2023/04/04 06:12:59;;;;;;;9.02;8.80;;;;;;;;;;4245778;28;20080;-57
2023/04/04 06:15:19;;;;;;;8.05;7.60;;;;;;;;;;4247852;28;20246;-57
2023/04/04 06:17:39;;;;;;;7.97;7.68;;;;;;;;;;4244154;28;20050;-57
2023/04/04 06:20:00;;;;;;;9.30;8.52;;;;;;;;;;4245108;28;20076;-57
2023/04/04 06:22:20;;;;;;;7.53;6.90;;;;;;;;;;4246948;27;20050;-58
2023/04/04 06:24:41;;;;;;;7.97;7.43;;;;;;;;;;4247383;28;20042;-58
2023/04/04 06:27:01;;;;;;;6.72;6.63;;;;;;;;;;4245885;28;20049;-57
2023/04/04 06:29:23;;;;;;;6.18;6.07;;;;;;;;;;4247325;28;20038;-57
2023/04/04 06:31:43;;;;;;;7.30;6.95;;;;;;;;;;4246385;28;20051;-57
2023/04/04 06:34:03;;;;;;;6.10;5.90;;;;;;;;;;4246884;28;20053;-57
2023/04/04 06:36:23;;;;;;;6.28;5.93;;;;;;;;;;4248142;27;20058;-57
2023/04/04 06:38:44;;;;;;;6.50;6.40;;;;;;;;;;4245657;28;20043;-58
2023/04/04 06:41:04;;;;;;;6.18;6.05;;;;;;;;;;4244480;28;20047;-57
2023/04/04 06:43:24;;;;;;;6.22;6.03;;;;;;;;;;4250312;28;20051;-58
2023/04/04 06:45:44;;;;;;;5.25;5.15;;;;;;;;;;4247524;28;20050;-58
2023/04/04 06:48:05;;;;;;;6.82;6.57;;;;;;;;;;4244197;28;20272;-57
2023/04/04 06:50:26;;;;;;;6.63;6.50;;;;;;;;;;4242787;28;20049;-57
2023/04/04 06:52:46;;;;;;;8.60;7.88;;;;;;;;;;4245700;28;20059;-57
2023/04/04 06:55:07;;;;;;;7.00;6.90;;;;;;;;;;4251697;28;20112;-58
2023/04/04 06:57:27;;;;;;;7.55;7.43;;;;;;;;;;4247930;28;20093;-58
2023/04/04 06:59:47;;;;;;;6.85;6.63;;;;;;;;;;4245777;28;20054;-57
2023/04/04 07:02:08;;;;;;;5.68;5.43;;;;;;;;;;4241133;28;20338;-57
2023/04/04 07:04:31;;;;;;;6.75;6.53;;;;;;;;;;4243390;28;20085;-57
2023/04/04 07:06:51;;;;;;;7.43;7.13;;;;;;;;;;4246580;28;20081;-58
2023/04/04 07:09:11;;;;;;;6.97;6.68;;;;;;;;;;4246510;28;20046;-57
2023/04/04 07:11:45;;;;;;;7.05;6.88;;;;;;;;;;4242953;28;20065;-57
2023/04/04 07:14:06;;;;;;;7.38;7.13;;;;;;;;;;4245439;28;20264;-57
2023/04/04 07:16:27;;;;;;;6.10;5.80;;;;;;;;;;4246743;28;20046;-57
2023/04/04 07:18:47;;;;;;;7.55;7.18;;;;;;;;;;4244014;28;20084;-58
2023/04/04 07:21:07;;;;;;;7.07;6.85;;;;;;;;;;4244690;28;20046;-58
2023/04/04 07:23:28;;;;;;;6.88;6.63;;;;;;;;;;4246769;28;20366;-58
2023/04/04 07:25:48;;;;;;;6.97;6.68;;;;;;;;;;4244742;28;20095;-58
2023/04/04 07:28:08;;;;;;;6.45;6.05;;;;;;;;;;4245287;28;20080;-58
2023/04/04 07:30:33;;;;;;;6.65;6.20;;;;;;;;;;4246403;28;20034;-58
2023/04/04 07:32:57;;;;;;;6.05;5.75;;;;;;;;;;4245584;28;20066;-58
2023/04/04 07:35:18;;;;;;;5.57;5.45;;;;;;;;;;4245336;27;20051;-58
2023/04/04 07:37:38;;;;;;;5.63;5.28;;;;;;;;;;4247723;28;20043;-58
2023/04/04 07:39:58;;;;;;;6.05;5.78;;;;;;;;;;4248670;28;20083;-57
2023/04/04 07:42:22;;;;;;;6.70;6.38;;;;;;;;;;4246500;28;20357;-58
2023/04/04 07:44:42;;;;;;;6.03;5.72;;;;;;;;;;4243802;28;20047;-58
2023/04/04 07:47:02;;;;;;;4.90;4.78;;;;;;;;;;4238429;28;20050;-58
2023/04/04 07:49:30;;;;;;;4.95;4.85;;;;;;;;;;4249705;28;20062;-58
2023/04/04 07:51:50;;;;;;;4.93;4.72;;;;;;;;;;4249264;28;20058;-58
2023/04/04 07:54:10;;;;;;;6.75;6.38;;;;;;;;;;4247638;28;20113;-58
2023/04/04 07:56:30;;;;;;;6.13;5.88;;;;;;;;;;4244489;28;20066;-58
2023/04/04 07:58:51;;;;;;;5.85;5.65;;;;;;;;;;4248379;28;20066;-58
2023/04/04 08:01:11;;;;;;;5.72;5.40;;;;;;;;;;4249010;28;20081;-58
2023/04/04 08:03:31;;;;;;;5.88;5.55;;;;;;;;;;4247298;28;20362;-58
2023/04/04 08:05:52;;;;;;;5.72;5.53;;;;;;;;;;4248170;28;20046;-58
2023/04/04 08:08:12;;;;;;;5.53;5.43;;;;;;;;;;4248466;28;20049;-58
2023/04/04 08:10:32;;;;;;;6.65;6.47;;;;;;;;;;4248147;28;20055;-58
2023/04/04 08:12:53;;;;;;;6.32;6.00;;;;;;;;;;4249012;28;20377;-58
2023/04/04 08:15:13;;;;;;;5.68;5.25;;;;;;;;;;4236113;28;20421;-58
2023/04/04 08:17:33;;;;;;;4.45;4.35;;;;;;;;;;4248695;28;20108;-58
2023/04/04 08:19:53;;;;;;;5.65;5.35;;;;;;;;;;4248519;28;20069;-58
2023/04/04 08:22:14;;;;;;;5.30;5.00;;;;;;;;;;4248744;28;20050;-58
2023/04/04 08:24:35;;;;;;;5.28;5.18;;;;;;;;;;4249077;28;20042;-58
2023/04/04 08:26:55;;;;;;;5.07;4.80;;;;;;;;;;4246566;28;20046;-58
2023/04/04 08:29:25;;;;;;;4.90;4.70;;;;;;;;;;4249546;28;20361;-59
2023/04/04 08:31:46;;;;;;;4.85;4.75;;;;;;;;;;4249355;28;20046;-58
2023/04/04 08:34:07;;;;;;;5.00;4.95;;;;;;;;;;4231151;28;20043;-58
2023/04/04 08:36:27;;;;;;;4.78;4.68;;;;;;;;;;4244185;27;20054;-59
2023/04/04 08:38:48;;;;;;;5.53;5.43;;;;;;;;;;4247553;28;20047;-58
2023/04/04 08:41:09;;;;;;;5.45;5.35;;;;;;;;;;4253700;28;20047;-58
2023/04/04 08:43:34;;;;;;;5.13;5.03;;;;;;;;;;4249913;28;20296;-58
2023/04/04 08:45:54;;;;;;;5.68;5.38;;;;;;;;;;4244890;28;20105;-58
2023/04/04 08:48:16;;;;;;;5.53;5.22;;;;;;;;;;4248576;28;20119;-59
2023/04/04 08:50:37;;;;;;;5.25;5.15;;;;;;;;;;4249230;28;20078;-58
2023/04/04 08:53:00;;;;;;;5.45;5.25;;;;;;;;;;4246618;28;20086;-58
2023/04/04 08:55:20;;;;;;;5.32;5.22;;;;;;;;;;4247336;28;20366;-58
2023/04/04 08:57:42;;;;;;;5.20;5.00;;;;;;;;;;4244160;28;20084;-59
2023/04/04 09:00:05;;;;;;;5.57;5.45;;;;;;;;;;4246257;28;20068;-59
2023/04/04 09:02:28;;;;;;;5.45;5.28;;;;;;;;;;4248621;28;20077;-58
2023/04/04 09:04:49;;;;;;;5.90;5.70;;;;;;;;;;4248782;28;20062;-58
2023/04/04 09:07:27;;;;;;;6.07;5.97;;;;;;;;;;4246396;28;20050;-59
2023/04/04 09:09:47;;;;;;;5.43;5.22;;;;;;;;;;4248390;28;20076;-58
2023/04/04 09:12:07;;;;;;;6.38;5.95;;;;;;;;;;4246663;28;20065;-58
2023/04/04 09:14:29;;;;;;;5.78;5.47;;;;;;;;;;4250773;28;20081;-58
2023/04/04 09:16:49;;;;;;;5.47;5.18;;;;;;;;;;4248662;28;20069;-58
2023/04/04 09:19:09;;;;;;;6.47;6.35;;;;;;;;;;4234722;28;20250;-59
2023/04/04 09:21:32;;;;;;;6.50;6.20;;;;;;;;;;4250495;28;20083;-58
2023/04/04 09:23:59;;;;;;;7.05;6.80;;;;;;;;;;4252928;28;20273;-59
2023/04/04 09:26:20;;;;;;;5.50;5.40;;;;;;;;;;4247496;28;20077;-58
2023/04/04 09:28:40;;;;;;;6.15;5.90;;;;;;;;;;4245505;28;20085;-58
2023/04/04 09:31:03;;;;;;;6.65;6.45;;;;;;;;;;4247938;28;20089;-58
2023/04/04 09:33:24;;;;;;;4.78;4.65;;;;;;;;;;4247900;28;20358;-58
2023/04/04 09:35:45;;;;;;;5.43;5.22;;;;;;;;;;4248234;28;20234;-58
2023/04/04 09:38:06;;;;;;;5.07;4.65;;;;;;;;;;4247550;28;20361;-58
2023/04/04 09:40:28;;;;;;;6.03;5.75;;;;;;;;;;4248320;28;20049;-58
2023/04/04 09:42:49;;;;;;;7.57;5.72;;;;;;;;;;4246920;28;20042;-58
2023/04/04 09:45:09;;;;;;;5.35;5.22;;;;;;;;;;4251577;28;20038;-58
2023/04/04 09:47:32;;;;;;;;;;;;;;;;;;4248950;28;20243;-59
2023/04/04 09:49:53;;;;;;;5.97;5.68;;;;;;;;;;4246698;28;20278;-59
2023/04/04 09:52:20;;;;;;;6.28;5.88;;;;;;;;;;4243078;28;20129;-58
2023/04/04 09:54:40;;;;;;;5.80;5.32;;;;;;;;;;4247308;28;20079;-59
2023/04/04 09:57:08;;;;;;;4.45;4.35;;;;;;;;;;4247324;28;20050;-58
2023/04/04 09:59:28;;;;;;;5.50;4.70;;;;;;;;;;4245725;28;20039;-58
2023/04/04 10:01:51;;;;;;;4.82;4.70;;;;;;;;;;4247608;28;20046;-59
2023/04/04 10:04:11;;;;;;;4.30;4.20;;;;;;;;;;4247725;28;20094;-59
2023/04/04 10:06:32;;;;;;;4.15;4.03;;;;;;;;;;4250205;28;20093;-59
2023/04/04 10:08:52;;;;;;;4.75;4.65;;;;;;;;;;4247808;28;20038;-58
2023/04/04 10:11:13;;;;;;;4.90;4.65;;;;;;;;;;4248036;28;20368;-59
2023/04/04 10:13:35;;;;;;;4.28;4.18;;;;;;;;;;4245621;28;20046;-58
2023/04/04 10:15:56;;;;;;;5.95;5.65;;;;;;;;;;4244797;28;20046;-59
2023/04/04 10:18:16;;;;;;;5.07;4.95;;;;;;;;;;4247699;28;20042;-59
2023/04/04 10:20:37;;;;;;;4.80;4.70;;;;;;;;;;4245954;28;20063;-59
2023/04/04 10:22:58;;;;;;;5.32;5.20;;;;;;;;;;4244468;28;20080;-59
2023/04/04 10:25:19;;;;;;;5.72;5.60;;;;;;;;;;4247587;28;20047;-58
2023/04/04 10:27:39;;;;;;;5.82;5.57;;;;;;;;;;4246328;28;20076;-58
2023/04/04 10:30:02;;;;;;;5.13;4.95;;;;;;;;;;4247745;28;20050;-58
2023/04/04 10:32:24;;;;;;;5.72;5.60;;;;;;;;;;4246518;28;20043;-59
2023/04/04 10:34:53;;;;;;;5.47;5.00;;;;;;;;;;4246218;28;20147;-59
2023/04/04 10:37:25;;;;;;;5.35;5.15;;;;;;;;;;4246899;27;20077;-59
2023/04/04 10:39:52;;;;;;;4.95;4.65;;;;;;;;;;4247898;28;20050;-59
2023/04/04 10:42:15;;;;;;;5.22;4.93;;;;;;;;;;4245980;28;20054;-59
2023/04/04 10:44:35;;;;;;;;;;;;;;;;;;4245393;28;20038;-59
2023/04/04 10:46:57;;;;;;;7.68;5.35;;;;;;;;;;4253420;28;19929;-59
2023/04/04 10:49:18;;;;;;;4.65;4.60;;;;;;;;;;4247274;28;20239;-59
2023/04/04 10:51:39;;;;;;;4.90;4.63;;;;;;;;;;4245941;28;20098;-59
2023/04/04 10:54:13;;;;;;;5.38;5.28;;;;;;;;;;4242260;28;20042;-59
2023/04/04 10:56:34;;;;;;;4.68;4.57;;;;;;;;;;4247279;28;20061;-58
2023/04/04 10:59:13;;;;;;;3.83;3.83;;;;;;;;;;4251784;28;20062;-59
2023/04/04 11:01:47;;;;;;;5.18;5.05;;;;;;;;;;4246261;28;20046;-59
2023/04/04 11:04:16;;;;;;;4.13;4.13;;;;;;;;;;4247246;28;20081;-59
2023/04/04 11:06:59;;;;;;;4.63;4.53;;;;;;;;;;4245237;28;20100;-59
2023/04/04 11:09:38;;;;;;;4.75;4.65;;;;;;;;;;4246163;27;20092;-59
2023/04/04 11:12:08;;;;;;;7.25;6.72;;;;;;;;;;4246701;28;20103;-58
2023/04/04 11:14:29;;;;;;;4.97;4.53;;;;;;;;;;4243420;28;20090;-59
2023/04/04 11:16:51;;;;;;;5.65;5.55;;;;;;;;;;4246286;28;20475;-59
2023/04/04 11:19:13;;;;;;;5.57;5.35;;;;;;;;;;4247384;28;20050;-59
2023/04/04 11:21:34;;;;;;;4.90;4.43;;;;;;;;;;4244833;28;20112;-59
2023/04/04 11:23:54;;;;;;;5.05;4.93;;;;;;;;;;4243902;28;20058;-59
2023/04/04 11:26:26;;;;;;;5.07;4.68;;;;;;;;;;4246535;28;20061;-59
2023/04/04 11:28:47;;;;;;;3.57;3.33;;;;;;;;;;4245361;28;20054;-59
2023/04/04 11:31:17;;;;;;;4.20;4.10;;;;;;;;;;4246073;28;20403;-59
2023/04/04 11:33:56;;;;;;;6.93;4.07;;;;;;;;;;4245481;28;20085;-59
2023/04/04 11:36:24;;;;;;;4.20;4.05;;;;;;;;;;4245157;28;20088;-59
2023/04/04 11:38:49;;;;;;;3.47;3.38;;;;;;;;;;4242713;28;20054;-59
2023/04/04 11:41:09;;;;;;;4.10;3.90;;;;;;;;;;4245337;28;20107;-59
2023/04/04 11:43:33;;;;;;;5.40;5.30;;;;;;;;;;4243615;28;20090;-59
2023/04/04 11:45:54;;;;;;;7.97;7.40;;;;;;;;;;4242786;28;20222;-59
2023/04/04 11:48:16;;;;;;;4.90;4.70;;;;;;;;;;4240508;28;20046;-59
2023/04/04 11:50:38;;;;;;;5.63;5.53;;;;;;;;;;4242429;28;20250;-59
2023/04/04 11:52:58;;;;;;;5.07;4.93;;;;;;;;;;4241934;28;20066;-59
2023/04/04 11:55:21;;;;;;;3.55;3.45;;;;;;;;;;4244788;28;20050;-59
2023/04/04 11:57:42;;;;;;;4.13;3.72;;;;;;;;;;4246777;28;20050;-60
2023/04/04 12:00:05;;;;;;;5.28;5.13;;;;;;;;;;4241700;28;20049;-59
2023/04/04 12:02:30;;;;;;;4.55;4.30;;;;;;;;;;4243865;28;20096;-60
2023/04/04 12:04:51;;;;;;;4.47;4.15;;;;;;;;;;4246104;28;20069;-59
2023/04/04 12:07:15;;;;;;;4.53;4.22;;;;;;;;;;4243551;28;20088;-59
2023/04/04 12:09:36;;;;;;;4.43;4.32;;;;;;;;;;4243916;28;20047;-59
2023/04/04 12:11:56;;;;;;;4.75;4.45;;;;;;;;;;4246370;28;20084;-59
2023/04/04 12:14:21;;;;;;;2.97;2.90;;;;;;;;;;4244434;28;20045;-59
2023/04/04 12:16:42;;;;;;;5.00;4.90;;;;;;;;;;4245559;28;20166;-59
2023/04/04 12:19:02;;;;;;;4.45;4.30;;;;;;;;;;4245389;28;20041;-59
2023/04/04 12:21:24;;;;;;;3.85;3.72;;;;;;;;;;4246096;27;20099;-59
2023/04/04 12:23:47;;;;;;;3.58;3.33;;;;;;;;;;4247337;28;20060;-59
2023/04/04 12:26:10;;;;;;;4.30;4.05;;;;;;;;;;4249366;28;20050;-60
2023/04/04 12:28:32;;;;;;;4.60;4.30;;;;;;;;;;4248781;28;20046;-59
2023/04/04 12:30:53;;;;;;;4.07;3.88;;;;;;;;;;4245894;28;20046;-60
2023/04/04 12:33:13;;;;;;;3.00;2.90;;;;;;;;;;4248701;28;20093;-60
2023/04/04 12:35:33;;;;;;;3.30;3.20;;;;;;;;;;4249134;28;20223;-59
2023/04/04 12:38:02;;;;;;;4.10;4.00;;;;;;;;;;4246893;28;20049;-62
2023/04/04 12:40:23;;;;;;;2.97;2.88;;;;;;;;;;4244466;28;20219;-62
2023/04/04 12:42:43;;;;;;;5.70;5.20;;;;;;;;;;4248896;28;20112;-62
2023/04/04 12:45:04;;;;;;;4.43;4.32;;;;;;;;;;4252100;28;20051;-62
2023/04/04 12:47:27;;;;;;;4.32;4.13;;;;;;;;;;4250091;28;20051;-62
2023/04/04 12:49:48;;;;;;;3.88;3.83;;;;;;;;;;4245227;28;20146;-62
2023/04/04 12:52:17;;;;;;;3.17;3.10;;;;;;;;;;4243212;28;20045;-61
2023/04/04 12:54:38;;;;;;;3.78;3.50;;;;;;;;;;4245573;28;20100;-61
2023/04/04 12:57:02;;;;;;;3.40;3.40;;;;;;;;;;4247830;28;20055;-61
2023/04/04 12:59:24;;;;;;;4.13;4.07;;;;;;;;;;4247782;28;20046;-62
2023/04/04 13:01:44;;;;;;;5.22;4.53;;;;;;;;;;4246910;28;20051;-62
2023/04/04 13:04:08;;;;;;;3.97;3.80;;;;;;;;;;4247350;28;20119;-61
2023/04/04 13:06:30;;;;;;;3.75;3.65;;;;;;;;;;4244814;28;20050;-61
2023/04/04 13:08:53;;;;;;;3.38;3.20;;;;;;;;;;4250547;28;20069;-62
2023/04/04 13:11:13;;;;;;;3.70;3.40;;;;;;;;;;4244783;28;20385;-61
2023/04/04 13:13:35;;;;;;;7.05;3.45;;;;;;;;;;4246969;28;20078;-62
2023/04/04 13:15:55;;;;;;;3.33;3.22;;;;;;;;;;4243530;28;20046;-61
2023/04/04 13:18:20;;;;;;;5.05;4.78;;;;;;;;;;4250637;28;20092;-61
2023/04/04 13:20:41;;;;;;;3.63;3.53;;;;;;;;;;4252093;28;20369;-62
2023/04/04 13:23:01;;;;;;;4.10;4.00;;;;;;;;;;4250516;28;20051;-61
2023/04/04 13:25:21;;;;;;;3.95;3.85;;;;;;;;;;4249504;28;20227;-61
2023/04/04 13:27:41;;;;;;;2.88;2.88;;;;;;;;;;4250230;28;20054;-62
2023/04/04 13:30:02;;;;;;;3.55;3.45;;;;;;;;;;4246181;28;20043;-61
2023/04/04 13:32:22;;;;;;;4.70;2.35;;;;;;;;;;4243005;28;20116;-61
2023/04/04 13:34:42;;;;;;;4.45;4.25;;;;;;;;;;4250802;28;20059;-61
2023/04/04 13:37:03;;;;;;;2.20;2.20;;;;;;;;;;4245857;27;20154;-62
2023/04/04 13:39:23;;;;;;;3.35;3.25;;;;;;;;;;4249178;28;20154;-61
2023/04/04 13:41:43;;;;;;;4.90;4.60;;;;;;;;;;4246281;28;20136;-61
2023/04/04 13:44:03;;;;;;;3.80;3.60;;;;;;;;;;4251176;28;20115;-61
2023/04/04 13:46:23;;;;;;;2.20;2.20;;;;;;;;;;4251629;28;20050;-61
2023/04/04 13:48:43;;;;;;;3.90;3.55;;;;;;;;;;4250876;28;20099;-62
2023/04/04 13:51:03;;;;;;;2.85;2.83;;;;;;;;;;4249468;28;20105;-61
2023/04/04 13:53:23;;;;;;;2.10;2.10;;;;;;;;;;4248124;28;20042;-62
2023/04/04 13:55:43;;;;;;;3.20;3.00;;;;;;;;;;4239515;28;20041;-61
2023/04/04 13:58:24;;;;;;;2.80;2.67;;;;;;;;;;4251193;28;20034;-61
2023/04/04 14:00:44;;;;;;;2.45;2.35;;;;;;;;;;4247970;28;20084;-61
2023/04/04 14:03:04;;;;;;;2.78;2.75;;;;;;;;;;4246162;28;20085;-61
2023/04/04 14:05:25;;;;;;;2.90;2.83;;;;;;;;;;4248954;28;20067;-61
2023/04/04 14:07:46;;;;;;;2.63;2.53;;;;;;;;;;4245602;28;20049;-61
2023/04/04 14:10:06;;;;;;;3.15;2.95;;;;;;;;;;4248453;28;20047;-61